Time,TemperatureF,DewpointF,PressureIn,WindDirection,WindDirectionDegrees,WindSpeedMPH,WindSpeedGustMPH,Humidity,HourlyPrecipIn,Conditions,Clouds,dailyrainin,SoftwareType,DateUTC
2013-08-06 00:01:00,82.4,70.8,29.83,South,169,8.0,8.0,68,0.00,,SKC,0.00,VWS V14.01,2013-08-06 05:01:00,
2013-08-06 00:06:00,82.2,71.0,29.83,SSW,192,8.0,12.0,69,0.00,,SKC,0.00,VWS V14.01,2013-08-06 05:06:00,
2013-08-06 00:11:00,82.0,70.8,29.83,South,169,3.0,9.0,69,0.00,,SKC,0.00,VWS V14.01,2013-08-06 05:11:00,
2013-08-06 00:16:00,81.7,71.0,29.83,SSE,159,9.0,11.0,70,0.00,,SKC,0.00,VWS V14.01,2013-08-06 05:16:00,
2013-08-06 00:21:00,81.5,70.8,29.83,SSE,153,10.0,10.0,70,0.00,,SKC,0.00,VWS V14.01,2013-08-06 05:21:00,
2013-08-06 00:26:00,81.3,71.0,29.83,SSE,167,10.0,10.0,71,0.00,,SKC,0.00,VWS V14.01,2013-08-06 05:26:00,
2013-08-06 00:31:00,81.1,70.8,29.83,SSE,157,5.0,9.0,71,0.00,,SKC,0.00,VWS V14.01,2013-08-06 05:31:00,
2013-08-06 00:36:00,80.9,70.6,29.83,SE,138,14.0,15.0,71,0.00,,SKC,0.00,VWS V14.01,2013-08-06 05:36:00,
2013-08-06 00:41:00,80.8,70.5,29.84,SSE,150,10.0,14.0,71,0.00,,SKC,0.00,VWS V14.01,2013-08-06 05:41:00,
2013-08-06 00:46:00,80.7,70.4,29.84,SSE,167,13.0,15.0,71,0.00,,SKC,0.00,VWS V14.01,2013-08-06 05:46:00,
2013-08-06 00:51:00,80.5,70.7,29.84,South,169,7.0,11.0,72,0.00,,SKC,0.00,VWS V14.01,2013-08-06 05:51:00,
2013-08-06 00:56:00,80.3,70.5,29.84,South,183,5.0,7.0,72,0.00,,SKC,0.00,VWS V14.01,2013-08-06 05:56:00,
2013-08-06 01:01:00,80.0,70.2,29.84,South,171,4.0,10.0,72,0.00,,SKC,0.00,VWS V14.01,2013-08-06 06:01:00,
2013-08-06 01:06:00,79.8,70.4,29.83,South,173,8.0,12.0,73,0.00,,SKC,0.00,VWS V14.01,2013-08-06 06:06:00,
2013-08-06 01:11:00,79.6,70.2,29.83,South,179,4.0,8.0,73,0.00,,SKC,0.00,VWS V14.01,2013-08-06 06:11:00,
2013-08-06 01:16:00,79.4,70.0,29.83,SSE,168,4.0,14.0,73,0.00,,SKC,0.00,VWS V14.01,2013-08-06 06:16:00,
2013-08-06 01:21:00,79.3,69.9,29.83,South,181,8.0,13.0,73,0.00,,SKC,0.00,VWS V14.01,2013-08-06 06:21:00,
2013-08-06 01:26:00,79.2,69.4,29.83,South,175,4.0,6.0,72,0.00,,SKC,0.00,VWS V14.01,2013-08-06 06:26:00,
2013-08-06 01:31:00,79.1,69.3,29.83,South,171,3.0,11.0,72,0.00,,SKC,0.00,VWS V14.01,2013-08-06 06:31:00,
2013-08-06 01:36:00,79.0,69.2,29.83,SSE,167,5.0,12.0,72,0.00,,SKC,0.00,VWS V14.01,2013-08-06 06:36:00,
2013-08-06 01:41:00,78.9,69.1,29.83,South,173,7.0,12.0,72,0.00,,SKC,0.00,VWS V14.01,2013-08-06 06:41:00,
2013-08-06 01:46:00,78.7,68.9,29.83,South,187,6.0,11.0,72,0.00,,SKC,0.00,VWS V14.01,2013-08-06 06:46:00,
2013-08-06 01:51:00,78.7,68.9,29.83,South,176,6.0,11.0,72,0.00,,SKC,0.00,VWS V14.01,2013-08-06 06:51:00,
2013-08-06 01:56:00,78.6,68.8,29.83,South,191,6.0,11.0,72,0.00,,SKC,0.00,VWS V14.01,2013-08-06 06:56:00,
2013-08-06 02:01:00,78.4,69.0,29.83,South,177,6.0,14.0,73,0.00,,SKC,0.00,VWS V14.01,2013-08-06 07:01:00,
2013-08-06 02:06:00,78.2,68.8,29.83,South,190,7.0,10.0,73,0.00,,SKC,0.00,VWS V14.01,2013-08-06 07:06:00,
2013-08-06 02:11:00,77.9,68.6,29.83,South,170,3.0,5.0,73,0.00,,SKC,0.00,VWS V14.01,2013-08-06 07:11:00,
2013-08-06 02:16:00,77.6,68.7,29.83,SSE,164,5.0,7.0,74,0.00,,SKC,0.00,VWS V14.01,2013-08-06 07:16:00,
2013-08-06 02:22:00,77.4,68.5,29.83,South,184,8.0,10.0,74,0.00,,SKC,0.00,VWS V14.01,2013-08-06 07:22:00,
2013-08-06 02:27:00,77.1,68.6,29.83,South,178,6.0,8.0,75,0.00,,SKC,0.00,VWS V14.01,2013-08-06 07:27:00,
2013-08-06 02:32:00,77.0,68.5,29.83,South,184,7.0,10.0,75,0.00,,SKC,0.00,VWS V14.01,2013-08-06 07:32:00,
2013-08-06 02:37:00,76.8,68.3,29.83,SSE,163,2.0,2.0,75,0.00,,SKC,0.00,VWS V14.01,2013-08-06 07:37:00,
2013-08-06 02:42:00,76.6,68.1,29.83,South,174,6.0,6.0,75,0.00,,SKC,0.00,VWS V14.01,2013-08-06 07:42:00,
2013-08-06 02:47:00,76.4,68.3,29.83,South,186,5.0,7.0,76,0.00,,SKC,0.00,VWS V14.01,2013-08-06 07:47:00,
2013-08-06 02:52:00,76.3,68.2,29.83,South,180,4.0,4.0,76,0.00,,SKC,0.00,VWS V14.01,2013-08-06 07:52:00,
2013-08-06 02:57:00,76.1,68.0,29.83,South,184,4.0,6.0,76,0.00,,SKC,0.00,VWS V14.01,2013-08-06 07:57:00,
2013-08-06 03:02:00,76.0,67.9,29.83,SSE,159,6.0,6.0,76,0.00,,SKC,0.00,VWS V14.01,2013-08-06 08:02:00,
2013-08-06 03:07:00,75.9,67.8,29.83,South,178,5.0,5.0,76,0.00,,SKC,0.00,VWS V14.01,2013-08-06 08:07:00,
2013-08-06 03:12:00,75.8,68.1,29.83,South,184,6.0,6.0,77,0.00,,SKC,0.00,VWS V14.01,2013-08-06 08:12:00,
2013-08-06 03:17:00,75.7,68.0,29.83,South,175,3.0,4.0,77,0.00,,SKC,0.00,VWS V14.01,2013-08-06 08:17:00,
2013-08-06 03:22:00,75.6,67.9,29.83,South,188,2.0,5.0,77,0.00,,SKC,0.00,VWS V14.01,2013-08-06 08:22:00,
2013-08-06 03:27:00,75.5,67.8,29.83,South,182,4.0,6.0,77,0.00,,SKC,0.00,VWS V14.01,2013-08-06 08:27:00,
2013-08-06 03:32:00,75.5,67.8,29.83,South,191,4.0,5.0,77,0.00,,SKC,0.00,VWS V14.01,2013-08-06 08:32:00,
2013-08-06 03:37:00,75.4,67.7,29.83,SSW,196,4.0,4.0,77,0.00,,SKC,0.00,VWS V14.01,2013-08-06 08:37:00,
2013-08-06 03:42:00,75.2,67.5,29.83,South,187,5.0,5.0,77,0.00,,SKC,0.00,VWS V14.01,2013-08-06 08:42:00,
2013-08-06 03:47:00,75.0,67.3,29.83,SSE,163,4.0,4.0,77,0.00,,SKC,0.00,VWS V14.01,2013-08-06 08:47:00,
2013-08-06 03:52:00,74.8,67.1,29.83,South,171,4.0,4.0,77,0.00,,SKC,0.00,VWS V14.01,2013-08-06 08:52:00,
2013-08-06 03:57:00,74.7,67.4,29.83,South,175,7.0,7.0,78,0.00,,SKC,0.00,VWS V14.01,2013-08-06 08:57:00,
2013-08-06 04:02:00,74.7,67.0,29.83,SSW,205,9.0,9.0,77,0.00,,SKC,0.00,VWS V14.01,2013-08-06 09:02:00,
2013-08-06 04:07:00,74.6,66.9,29.83,SSW,196,2.0,4.0,77,0.00,,SKC,0.00,VWS V14.01,2013-08-06 09:07:00,
2013-08-06 04:12:00,74.5,67.2,29.83,South,184,5.0,5.0,78,0.00,,SKC,0.00,VWS V14.01,2013-08-06 09:12:00,
2013-08-06 04:17:00,74.4,67.1,29.83,SSW,196,4.0,5.0,78,0.00,,SKC,0.00,VWS V14.01,2013-08-06 09:17:00,
2013-08-06 04:22:00,74.3,67.0,29.83,SSW,195,6.0,8.0,78,0.00,,SKC,0.00,VWS V14.01,2013-08-06 09:22:00,
2013-08-06 04:27:00,74.2,66.9,29.83,South,180,4.0,5.0,78,0.00,,SKC,0.00,VWS V14.01,2013-08-06 09:27:00,
2013-08-06 04:32:00,74.1,66.8,29.83,SSW,195,5.0,8.0,78,0.00,,SKC,0.00,VWS V14.01,2013-08-06 09:32:00,
2013-08-06 04:37:00,74.0,66.7,29.83,SSW,199,6.0,6.0,78,0.00,,SKC,0.00,VWS V14.01,2013-08-06 09:37:00,
2013-08-06 04:42:00,73.8,66.9,29.83,SSW,192,5.0,6.0,79,0.00,,SKC,0.00,VWS V14.01,2013-08-06 09:42:00,
2013-08-06 04:47:00,73.6,66.7,29.83,SSW,196,5.0,5.0,79,0.00,,SKC,0.00,VWS V14.01,2013-08-06 09:47:00,
2013-08-06 04:52:00,73.4,66.5,29.83,SSW,195,4.0,5.0,79,0.00,,SKC,0.00,VWS V14.01,2013-08-06 09:52:00,
2013-08-06 04:57:00,73.2,66.7,29.83,SSW,199,7.0,7.0,80,0.00,,SKC,0.00,VWS V14.01,2013-08-06 09:57:00,
2013-08-06 05:02:00,73.1,66.6,29.83,South,182,2.0,4.0,80,0.00,,SKC,0.00,VWS V14.01,2013-08-06 10:02:00,
2013-08-06 05:07:00,73.0,66.5,29.83,South,183,4.0,7.0,80,0.00,,SKC,0.00,VWS V14.01,2013-08-06 10:07:00,
2013-08-06 05:12:00,73.0,66.8,29.83,South,175,5.0,7.0,81,0.00,,SKC,0.00,VWS V14.01,2013-08-06 10:12:00,
2013-08-06 05:17:00,73.0,66.8,29.84,South,190,10.0,10.0,81,0.00,,SKC,0.00,VWS V14.01,2013-08-06 10:17:00,
2013-08-06 05:22:00,73.0,66.8,29.84,South,178,5.0,9.0,81,0.00,,SKC,0.00,VWS V14.01,2013-08-06 10:22:00,
2013-08-06 05:27:00,72.9,66.7,29.84,SSW,192,8.0,9.0,81,0.00,,SKC,0.00,VWS V14.01,2013-08-06 10:27:00,
2013-08-06 05:32:00,72.9,66.7,29.83,South,171,8.0,11.0,81,0.00,,SKC,0.00,VWS V14.01,2013-08-06 10:32:00,
2013-08-06 05:37:00,72.8,66.6,29.83,South,173,9.0,11.0,81,0.00,,SKC,0.00,VWS V14.01,2013-08-06 10:37:00,
2013-08-06 05:42:00,72.7,66.9,29.83,SSE,163,7.0,10.0,82,0.00,,SKC,0.00,VWS V14.01,2013-08-06 10:42:00,
2013-08-06 05:47:00,72.6,66.8,29.83,SSW,198,5.0,5.0,82,0.00,,SKC,0.00,VWS V14.01,2013-08-06 10:47:00,
2013-08-06 05:52:00,72.4,66.9,29.83,SSW,196,7.0,7.0,83,0.00,,SKC,0.00,VWS V14.01,2013-08-06 10:52:00,
2013-08-06 05:57:00,72.3,66.8,29.83,SSW,192,9.0,10.0,83,0.00,,SKC,0.00,VWS V14.01,2013-08-06 10:57:00,
2013-08-06 06:02:00,72.2,66.8,29.83,South,186,5.0,6.0,83,0.00,,SKC,0.00,VWS V14.01,2013-08-06 11:02:00,
2013-08-06 06:07:00,72.0,66.6,29.83,South,180,4.0,4.0,83,0.00,,SKC,0.00,VWS V14.01,2013-08-06 11:07:00,
2013-08-06 06:12:00,71.7,66.3,29.83,South,180,2.0,6.0,83,0.00,,SKC,0.00,VWS V14.01,2013-08-06 11:12:00,
2013-08-06 06:17:00,71.4,66.3,29.83,South,181,3.0,4.0,84,0.00,,SKC,0.00,VWS V14.01,2013-08-06 11:17:00,
2013-08-06 06:22:00,71.3,66.2,29.83,South,180,2.0,3.0,84,0.00,,SKC,0.00,VWS V14.01,2013-08-06 11:22:00,
2013-08-06 06:27:00,71.3,66.2,29.83,South,181,5.0,5.0,84,0.00,,SKC,0.00,VWS V14.01,2013-08-06 11:27:00,
2013-08-06 06:32:00,71.1,66.0,29.83,South,181,3.0,3.0,84,0.00,,SKC,0.00,VWS V14.01,2013-08-06 11:32:00,
2013-08-06 06:37:00,71.0,66.3,29.83,South,180,2.0,2.0,85,0.00,,SKC,0.00,VWS V14.01,2013-08-06 11:37:00,
2013-08-06 06:42:00,70.8,66.1,29.84,South,180,2.0,3.0,85,0.00,,SKC,0.00,VWS V14.01,2013-08-06 11:42:00,
2013-08-06 06:47:00,70.6,65.9,29.83,South,181,2.0,4.0,85,0.00,,SKC,0.00,VWS V14.01,2013-08-06 11:47:00,
2013-08-06 06:52:00,70.5,65.8,29.83,South,181,5.0,5.0,85,0.00,,SKC,0.00,VWS V14.01,2013-08-06 11:52:00,
2013-08-06 06:57:00,70.5,66.1,29.83,South,171,3.0,4.0,86,0.00,,SKC,0.00,VWS V14.01,2013-08-06 11:57:00,
2013-08-06 07:02:00,70.5,66.1,29.84,South,169,4.0,6.0,86,0.00,,SKC,0.00,VWS V14.01,2013-08-06 12:02:00,
2013-08-06 07:07:00,70.4,66.0,29.84,South,173,3.0,6.0,86,0.00,,SKC,0.00,VWS V14.01,2013-08-06 12:07:00,
2013-08-06 07:12:00,70.4,66.0,29.84,South,177,4.0,7.0,86,0.00,,SKC,0.00,VWS V14.01,2013-08-06 12:12:00,
2013-08-06 07:17:00,70.3,66.2,29.84,South,175,4.0,6.0,87,0.00,,SKC,0.00,VWS V14.01,2013-08-06 12:17:00,
2013-08-06 07:22:00,70.3,66.2,29.84,South,173,3.0,4.0,87,0.00,,SKC,0.00,VWS V14.01,2013-08-06 12:22:00,
2013-08-06 07:27:00,70.3,66.2,29.84,South,178,5.0,5.0,87,0.00,,SKC,0.00,VWS V14.01,2013-08-06 12:27:00,
2013-08-06 07:32:00,70.3,66.2,29.84,South,169,3.0,4.0,87,0.00,,SKC,0.00,VWS V14.01,2013-08-06 12:32:00,
2013-08-06 07:37:00,70.4,66.3,29.84,South,169,3.0,5.0,87,0.00,,SKC,0.00,VWS V14.01,2013-08-06 12:37:00,
2013-08-06 07:42:00,70.5,66.4,29.84,South,169,4.0,7.0,87,0.00,,SKC,0.00,VWS V14.01,2013-08-06 12:42:00,
2013-08-06 07:47:00,70.7,66.7,29.85,SSE,163,2.0,6.0,87,0.00,,SKC,0.00,VWS V14.01,2013-08-06 12:47:00,
2013-08-06 07:52:00,71.0,66.9,29.85,SSE,155,7.0,11.0,87,0.00,,SKC,0.00,VWS V14.01,2013-08-06 12:52:00,
2013-08-06 07:57:00,71.2,67.1,29.85,SSE,163,2.0,6.0,87,0.00,,SKC,0.00,VWS V14.01,2013-08-06 12:57:00,
2013-08-06 08:02:00,71.4,67.3,29.85,South,183,10.0,11.0,87,0.00,,SKC,0.00,VWS V14.01,2013-08-06 13:02:00,
2013-08-06 08:07:00,71.5,67.4,29.85,SSE,148,4.0,6.0,87,0.00,,SKC,0.00,VWS V14.01,2013-08-06 13:07:00,
2013-08-06 08:12:00,71.7,67.6,29.85,SSE,155,6.0,7.0,87,0.00,,SKC,0.00,VWS V14.01,2013-08-06 13:12:00,
2013-08-06 08:17:00,71.9,67.8,29.85,SSE,150,3.0,4.0,87,0.00,,SKC,0.00,VWS V14.01,2013-08-06 13:17:00,
2013-08-06 08:22:00,72.1,67.7,29.85,South,186,7.0,7.0,86,0.00,,SKC,0.00,VWS V14.01,2013-08-06 13:22:00,
2013-08-06 08:27:00,72.3,67.9,29.85,South,182,5.0,9.0,86,0.00,,SKC,0.00,VWS V14.01,2013-08-06 13:27:00,
2013-08-06 08:32:00,72.4,68.0,29.86,SSW,199,3.0,5.0,86,0.00,,SKC,0.00,VWS V14.01,2013-08-06 13:32:00,
2013-08-06 08:37:00,72.6,68.2,29.86,South,191,3.0,4.0,86,0.00,,SKC,0.00,VWS V14.01,2013-08-06 13:37:00,
2013-08-06 08:42:00,73.0,68.2,29.86,SSW,201,5.0,10.0,85,0.00,,SKC,0.00,VWS V14.01,2013-08-06 13:42:00,
2013-08-06 08:47:00,73.2,68.4,29.86,South,175,3.0,11.0,85,0.00,,SKC,0.00,VWS V14.01,2013-08-06 13:47:00,
2013-08-06 08:52:00,73.5,68.7,29.86,SSW,199,7.0,8.0,85,0.00,,SKC,0.00,VWS V14.01,2013-08-06 13:52:00,
2013-08-06 08:57:00,73.9,68.8,29.86,South,178,6.0,9.0,84,0.00,,SKC,0.00,VWS V14.01,2013-08-06 13:57:00,
2013-08-06 09:02:00,74.2,69.1,29.86,South,181,6.0,10.0,84,0.00,,SKC,0.00,VWS V14.01,2013-08-06 14:02:00,
2013-08-06 09:07:00,74.5,69.0,29.87,South,169,1.0,5.0,83,0.00,,SKC,0.00,VWS V14.01,2013-08-06 14:07:00,
2013-08-06 09:12:00,74.7,69.2,29.87,SSW,202,4.0,8.0,83,0.00,,SKC,0.00,VWS V14.01,2013-08-06 14:12:00,
2013-08-06 09:17:00,74.9,69.0,29.87,SSW,203,6.0,11.0,82,0.00,,SKC,0.00,VWS V14.01,2013-08-06 14:17:00,
2013-08-06 09:22:00,75.3,69.4,29.87,South,190,6.0,10.0,82,0.00,,SKC,0.00,VWS V14.01,2013-08-06 14:22:00,
2013-08-06 09:27:00,75.7,69.5,29.87,SSW,203,6.0,8.0,81,0.00,,SKC,0.00,VWS V14.01,2013-08-06 14:27:00,
2013-08-06 09:32:00,76.2,69.6,29.87,SSW,195,9.0,9.0,80,0.00,,SKC,0.00,VWS V14.01,2013-08-06 14:32:00,
2013-08-06 09:37:00,76.6,69.6,29.87,South,188,14.0,14.0,79,0.00,,SKC,0.00,VWS V14.01,2013-08-06 14:37:00,
2013-08-06 09:42:00,76.3,69.3,29.86,South,182,14.0,15.0,79,0.00,,SKC,0.00,VWS V14.01,2013-08-06 14:42:00,
2013-08-06 09:47:00,76.6,69.2,29.86,SSW,208,10.0,12.0,78,0.00,,SKC,0.00,VWS V14.01,2013-08-06 14:47:00,
2013-08-06 09:52:00,76.8,69.8,29.86,SSW,198,9.0,10.0,79,0.00,,SKC,0.00,VWS V14.01,2013-08-06 14:52:00,
2013-08-06 09:57:00,77.8,70.0,29.86,South,187,14.0,14.0,77,0.00,,SKC,0.00,VWS V14.01,2013-08-06 14:57:00,
2013-08-06 10:02:00,78.7,70.1,29.86,South,184,10.0,10.0,75,0.00,,SKC,0.00,VWS V14.01,2013-08-06 15:02:00,
2013-08-06 10:07:00,78.8,69.8,29.86,South,190,12.0,16.0,74,0.00,,SKC,0.00,VWS V14.01,2013-08-06 15:07:00,
2013-08-06 10:12:00,78.8,70.2,29.86,SSE,162,12.0,12.0,75,0.00,,SKC,0.00,VWS V14.01,2013-08-06 15:12:00,
2013-08-06 10:17:00,79.4,70.4,29.86,SSE,160,10.0,14.0,74,0.00,,SKC,0.00,VWS V14.01,2013-08-06 15:17:00,
2013-08-06 10:22:00,79.4,70.4,29.86,SSE,150,9.0,13.0,74,0.00,,SKC,0.00,VWS V14.01,2013-08-06 15:22:00,
2013-08-06 10:27:00,79.8,70.4,29.86,South,181,14.0,14.0,73,0.00,,SKC,0.00,VWS V14.01,2013-08-06 15:27:00,
2013-08-06 10:32:00,80.3,70.5,29.86,SSW,210,6.0,13.0,72,0.00,,SKC,0.00,VWS V14.01,2013-08-06 15:32:00,
2013-08-06 10:37:00,80.8,70.5,29.86,SSW,205,14.0,15.0,71,0.00,,SKC,0.00,VWS V14.01,2013-08-06 15:37:00,
2013-08-06 10:42:00,80.9,70.6,29.86,South,180,7.0,11.0,71,0.00,,SKC,0.00,VWS V14.01,2013-08-06 15:42:00,
2013-08-06 10:47:00,81.4,70.7,29.86,SSW,196,4.0,14.0,70,0.00,,SKC,0.00,VWS V14.01,2013-08-06 15:47:00,
2013-08-06 10:52:00,81.5,70.4,29.86,SSW,202,13.0,14.0,69,0.00,,SKC,0.00,VWS V14.01,2013-08-06 15:52:00,
2013-08-06 10:57:00,81.8,70.6,29.86,South,184,6.0,10.0,69,0.00,,SKC,0.00,VWS V14.01,2013-08-06 15:57:00,
2013-08-06 11:02:00,82.5,70.9,29.86,SSW,200,10.0,13.0,68,0.00,,SKC,0.00,VWS V14.01,2013-08-06 16:02:00,
2013-08-06 11:07:00,82.6,71.0,29.86,SSW,203,15.0,16.0,68,0.00,,SKC,0.00,VWS V14.01,2013-08-06 16:07:00,
2013-08-06 11:12:00,83.0,70.9,29.86,SSW,202,11.0,16.0,67,0.00,,SKC,0.00,VWS V14.01,2013-08-06 16:12:00,
2013-08-06 11:17:00,83.4,70.9,29.86,SSW,192,9.0,12.0,66,0.00,,SKC,0.00,VWS V14.01,2013-08-06 16:17:00,
2013-08-06 11:22:00,83.5,70.5,29.86,South,185,10.0,13.0,65,0.00,,SKC,0.00,VWS V14.01,2013-08-06 16:22:00,
2013-08-06 11:27:00,83.9,70.4,29.86,South,171,8.0,10.0,64,0.00,,SKC,0.00,VWS V14.01,2013-08-06 16:27:00,
2013-08-06 11:32:00,84.7,70.7,29.86,SSW,194,12.0,15.0,63,0.00,,SKC,0.00,VWS V14.01,2013-08-06 16:32:00,
2013-08-06 11:37:00,84.4,70.4,29.86,SSW,211,7.0,13.0,63,0.00,,SKC,0.00,VWS V14.01,2013-08-06 16:37:00,
2013-08-06 11:42:00,84.9,70.4,29.86,South,171,9.0,17.0,62,0.00,,SKC,0.00,VWS V14.01,2013-08-06 16:42:00,
2013-08-06 11:47:00,85.4,71.4,29.86,SSW,202,2.0,6.0,63,0.00,,SKC,0.00,VWS V14.01,2013-08-06 16:47:00,
2013-08-06 11:52:00,85.8,70.8,29.86,SSW,202,7.0,7.0,61,0.00,,SKC,0.00,VWS V14.01,2013-08-06 16:52:00,
2013-08-06 11:57:00,85.9,70.4,29.86,SSW,212,8.0,11.0,60,0.00,,SKC,0.00,VWS V14.01,2013-08-06 16:57:00,
2013-08-06 12:02:00,86.0,70.0,29.86,SSW,205,6.0,13.0,59,0.00,,SKC,0.00,VWS V14.01,2013-08-06 17:02:00,
2013-08-06 12:07:00,86.3,70.3,29.86,SW,214,4.0,11.0,59,0.00,,SKC,0.00,VWS V14.01,2013-08-06 17:07:00,
2013-08-06 12:12:00,87.5,70.4,29.86,SSW,199,9.0,10.0,57,0.00,,SKC,0.00,VWS V14.01,2013-08-06 17:12:00,
2013-08-06 12:17:00,87.6,69.4,29.85,SSW,196,17.0,18.0,55,0.00,,SKC,0.00,VWS V14.01,2013-08-06 17:17:00,
2013-08-06 12:22:00,87.5,69.4,29.86,South,176,13.0,14.0,55,0.00,,SKC,0.00,VWS V14.01,2013-08-06 17:22:00,
2013-08-06 12:27:00,87.7,69.5,29.85,South,169,9.0,12.0,55,0.00,,SKC,0.00,VWS V14.01,2013-08-06 17:27:00,
2013-08-06 12:32:00,88.2,69.5,29.85,SSW,192,13.0,13.0,54,0.00,,SKC,0.00,VWS V14.01,2013-08-06 17:32:00,
2013-08-06 12:37:00,88.4,69.1,29.85,SSW,203,15.0,15.0,53,0.00,,SKC,0.00,VWS V14.01,2013-08-06 17:37:00,
2013-08-06 12:42:00,88.6,68.7,29.85,SSW,200,11.0,13.0,52,0.00,,SKC,0.00,VWS V14.01,2013-08-06 17:42:00,
2013-08-06 12:47:00,89.3,69.4,29.85,SSE,163,4.0,5.0,52,0.00,,SKC,0.00,VWS V14.01,2013-08-06 17:47:00,
2013-08-06 12:52:00,90.2,69.1,29.85,South,187,11.0,13.0,50,0.00,,SKC,0.00,VWS V14.01,2013-08-06 17:52:00,
2013-08-06 12:57:00,90.5,68.8,29.85,South,174,6.0,9.0,49,0.00,,SKC,0.00,VWS V14.01,2013-08-06 17:57:00,
2013-08-06 13:02:00,90.7,67.7,29.84,South,175,7.0,13.0,47,0.00,,SKC,0.00,VWS V14.01,2013-08-06 18:02:00,
2013-08-06 13:07:00,90.7,68.3,29.84,SSW,202,9.0,12.0,48,0.00,,SKC,0.00,VWS V14.01,2013-08-06 18:07:00,
2013-08-06 13:12:00,91.0,68.6,29.84,SW,215,4.0,7.0,48,0.00,,SKC,0.00,VWS V14.01,2013-08-06 18:12:00,
2013-08-06 13:17:00,91.3,68.3,29.84,SSE,154,5.0,10.0,47,0.00,,SKC,0.00,VWS V14.01,2013-08-06 18:17:00,
2013-08-06 13:22:00,91.5,67.8,29.83,SSW,192,6.0,14.0,46,0.00,,SKC,0.00,VWS V14.01,2013-08-06 18:22:00,
2013-08-06 13:27:00,91.8,68.7,29.83,SE,139,9.0,11.0,47,0.00,,SKC,0.00,VWS V14.01,2013-08-06 18:27:00,
2013-08-06 13:32:00,91.8,68.1,29.83,South,171,5.0,12.0,46,0.00,,SKC,0.00,VWS V14.01,2013-08-06 18:32:00,
2013-08-06 13:37:00,92.1,67.7,29.83,ESE,115,5.0,10.0,45,0.00,,SKC,0.00,VWS V14.01,2013-08-06 18:37:00,
2013-08-06 13:42:00,92.7,67.6,29.83,South,187,7.0,12.0,44,0.00,,SKC,0.00,VWS V14.01,2013-08-06 18:42:00,
2013-08-06 13:47:00,92.6,66.2,29.82,SSW,202,18.0,18.0,42,0.00,,SKC,0.00,VWS V14.01,2013-08-06 18:47:00,
2013-08-06 13:52:00,92.8,67.0,29.82,SSE,159,8.0,11.0,43,0.00,,SKC,0.00,VWS V14.01,2013-08-06 18:52:00,
2013-08-06 13:57:00,93.2,65.3,29.82,SSW,205,13.0,16.0,40,0.00,,SKC,0.00,VWS V14.01,2013-08-06 18:57:00,
2013-08-06 14:02:00,93.6,64.9,29.81,SSW,194,13.0,18.0,39,0.00,,SKC,0.00,VWS V14.01,2013-08-06 19:02:00,
2013-08-06 14:07:00,94.2,66.2,29.81,SW,234,9.0,11.0,40,0.00,,SKC,0.00,VWS V14.01,2013-08-06 19:07:00,
2013-08-06 14:12:00,94.4,66.4,29.81,SSW,194,7.0,16.0,40,0.00,,SKC,0.00,VWS V14.01,2013-08-06 19:12:00,
2013-08-06 14:17:00,95.0,66.2,29.81,South,182,12.0,13.0,39,0.00,,SKC,0.00,VWS V14.01,2013-08-06 19:17:00,
2013-08-06 14:22:00,95.3,67.2,29.80,South,185,5.0,7.0,40,0.00,,SKC,0.00,VWS V14.01,2013-08-06 19:22:00,
2013-08-06 14:27:00,95.1,67.0,29.80,South,190,6.0,13.0,40,0.00,,SKC,0.00,VWS V14.01,2013-08-06 19:27:00,
2013-08-06 14:32:00,94.9,66.1,29.80,South,186,13.0,16.0,39,0.00,,SKC,0.00,VWS V14.01,2013-08-06 19:32:00,
2013-08-06 14:37:00,95.5,67.4,29.80,South,177,8.0,9.0,40,0.00,,SKC,0.00,VWS V14.01,2013-08-06 19:37:00,
2013-08-06 14:42:00,95.1,65.5,29.80,SSE,150,4.0,6.0,38,0.00,,SKC,0.00,VWS V14.01,2013-08-06 19:42:00,
2013-08-06 14:47:00,95.6,64.4,29.79,South,181,16.0,17.0,36,0.00,,SKC,0.00,VWS V14.01,2013-08-06 19:47:00,
2013-08-06 14:52:00,95.8,64.6,29.79,SSE,162,11.0,21.0,36,0.00,,SKC,0.00,VWS V14.01,2013-08-06 19:52:00,
2013-08-06 14:57:00,95.5,64.3,29.79,SSW,200,11.0,14.0,36,0.00,,SKC,0.00,VWS V14.01,2013-08-06 19:57:00,
2013-08-06 15:02:00,96.0,64.0,29.79,SSW,200,9.0,16.0,35,0.00,,SKC,0.00,VWS V14.01,2013-08-06 20:02:00,
2013-08-06 15:07:00,96.0,64.0,29.78,SSE,167,11.0,16.0,35,0.00,,SKC,0.00,VWS V14.01,2013-08-06 20:07:00,
2013-08-06 15:12:00,96.3,63.4,29.78,SW,221,6.0,10.0,34,0.00,,SKC,0.00,VWS V14.01,2013-08-06 20:12:00,
2013-08-06 15:17:00,96.9,63.1,29.78,SSW,205,18.0,21.0,33,0.00,,SKC,0.00,VWS V14.01,2013-08-06 20:17:00,
2013-08-06 15:22:00,96.9,63.1,29.78,SSW,209,5.0,7.0,33,0.00,,SKC,0.00,VWS V14.01,2013-08-06 20:22:00,
2013-08-06 15:27:00,97.2,62.5,29.78,South,171,9.0,18.0,32,0.00,,SKC,0.00,VWS V14.01,2013-08-06 20:27:00,
2013-08-06 15:32:00,97.2,61.5,29.78,SSE,161,7.0,10.0,31,0.00,,SKC,0.00,VWS V14.01,2013-08-06 20:32:00,
2013-08-06 15:37:00,97.6,61.9,29.78,SSW,200,13.0,13.0,31,0.00,,SKC,0.00,VWS V14.01,2013-08-06 20:37:00,
2013-08-06 15:42:00,97.4,62.6,29.78,SSW,196,7.0,13.0,32,0.00,,SKC,0.00,VWS V14.01,2013-08-06 20:42:00,
2013-08-06 15:47:00,97.1,61.5,29.77,SSE,148,5.0,14.0,31,0.00,,SKC,0.00,VWS V14.01,2013-08-06 20:47:00,
2013-08-06 15:52:00,97.3,60.7,29.77,South,172,14.0,15.0,30,0.00,,SKC,0.00,VWS V14.01,2013-08-06 20:52:00,
2013-08-06 15:57:00,98.1,60.4,29.77,SSW,195,8.0,18.0,29,0.00,,SKC,0.00,VWS V14.01,2013-08-06 20:57:00,
2013-08-06 16:02:00,97.9,60.3,29.77,South,175,15.0,15.0,29,0.00,,SKC,0.00,VWS V14.01,2013-08-06 21:02:00,
2013-08-06 16:07:00,97.8,60.2,29.77,South,176,5.0,11.0,29,0.00,,SKC,0.00,VWS V14.01,2013-08-06 21:07:00,
2013-08-06 16:12:00,98.1,60.4,29.76,SSE,147,7.0,10.0,29,0.00,,SKC,0.00,VWS V14.01,2013-08-06 21:12:00,
2013-08-06 16:17:00,98.5,59.8,29.76,SSW,198,10.0,14.0,28,0.00,,SKC,0.00,VWS V14.01,2013-08-06 21:17:00,
2013-08-06 16:22:00,98.2,60.5,29.76,SSE,164,7.0,9.0,29,0.00,,SKC,0.00,VWS V14.01,2013-08-06 21:22:00,
2013-08-06 16:27:00,98.3,61.6,29.76,SSW,207,8.0,14.0,30,0.00,,SKC,0.00,VWS V14.01,2013-08-06 21:27:00,
2013-08-06 16:32:00,98.4,62.6,29.76,SSE,152,16.0,18.0,31,0.00,,SKC,0.00,VWS V14.01,2013-08-06 21:32:00,
2013-08-06 16:37:00,98.1,63.2,29.76,South,182,8.0,10.0,32,0.00,,SKC,0.00,VWS V14.01,2013-08-06 21:37:00,
2013-08-06 16:42:00,98.3,62.5,29.76,SSW,198,11.0,12.0,31,0.00,,SKC,0.00,VWS V14.01,2013-08-06 21:42:00,
2013-08-06 16:47:00,98.4,61.7,29.75,SSW,199,7.0,10.0,30,0.00,,SKC,0.00,VWS V14.01,2013-08-06 21:47:00,
2013-08-06 16:52:00,98.8,62.0,29.75,South,180,13.0,13.0,30,0.00,,SKC,0.00,VWS V14.01,2013-08-06 21:52:00,
2013-08-06 16:57:00,98.9,62.1,29.75,South,172,9.0,13.0,30,0.00,,SKC,0.00,VWS V14.01,2013-08-06 21:57:00,
2013-08-06 17:02:00,98.4,60.7,29.75,SSW,202,6.0,10.0,29,0.00,,SKC,0.00,VWS V14.01,2013-08-06 22:02:00,
2013-08-06 17:07:00,98.4,61.7,29.75,SSW,202,3.0,9.0,30,0.00,,SKC,0.00,VWS V14.01,2013-08-06 22:07:00,
2013-08-06 17:12:00,98.1,63.2,29.75,SSW,208,5.0,12.0,32,0.00,,SKC,0.00,VWS V14.01,2013-08-06 22:12:00,
2013-08-06 17:17:00,98.2,62.4,29.75,South,186,9.0,10.0,31,0.00,,SKC,0.00,VWS V14.01,2013-08-06 22:17:00,
2013-08-06 17:22:00,98.5,62.7,29.75,SSE,148,7.0,8.0,31,0.00,,SKC,0.00,VWS V14.01,2013-08-06 22:22:00,
2013-08-06 17:27:00,98.0,61.3,29.75,South,173,7.0,10.0,30,0.00,,SKC,0.00,VWS V14.01,2013-08-06 22:27:00,
2013-08-06 17:32:00,98.2,61.5,29.74,South,171,10.0,12.0,30,0.00,,SKC,0.00,VWS V14.01,2013-08-06 22:32:00,
2013-08-06 17:37:00,98.2,62.4,29.74,SSE,159,7.0,9.0,31,0.00,,SKC,0.00,VWS V14.01,2013-08-06 22:37:00,
2013-08-06 17:42:00,98.0,60.4,29.74,SSW,207,3.0,9.0,29,0.00,,SKC,0.00,VWS V14.01,2013-08-06 22:42:00,
2013-08-06 17:47:00,97.7,62.9,29.74,South,178,6.0,12.0,32,0.00,,SKC,0.00,VWS V14.01,2013-08-06 22:47:00,
2013-08-06 17:52:00,97.5,62.7,29.73,SSE,160,9.0,11.0,32,0.00,,SKC,0.00,VWS V14.01,2013-08-06 22:52:00,
2013-08-06 17:57:00,97.4,62.6,29.73,South,171,10.0,15.0,32,0.00,,SKC,0.00,VWS V14.01,2013-08-06 22:57:00,
2013-08-06 18:02:00,97.3,62.5,29.73,SSE,161,6.0,11.0,32,0.00,,SKC,0.00,VWS V14.01,2013-08-06 23:02:00,
2013-08-06 18:07:00,97.4,61.7,29.73,SSW,209,9.0,10.0,31,0.00,,SKC,0.00,VWS V14.01,2013-08-06 23:07:00,
2013-08-06 18:12:00,97.2,62.5,29.73,South,186,11.0,16.0,32,0.00,,SKC,0.00,VWS V14.01,2013-08-06 23:12:00,
2013-08-06 18:17:00,97.0,62.3,29.73,SE,140,11.0,11.0,32,0.00,,SKC,0.00,VWS V14.01,2013-08-06 23:17:00,
2013-08-06 18:22:00,97.1,61.5,29.73,SSE,164,12.0,12.0,31,0.00,,SKC,0.00,VWS V14.01,2013-08-06 23:22:00,
2013-08-06 18:27:00,97.0,62.3,29.73,South,188,12.0,12.0,32,0.00,,SKC,0.00,VWS V14.01,2013-08-06 23:27:00,
2013-08-06 18:32:00,96.7,62.0,29.73,South,171,9.0,13.0,32,0.00,,SKC,0.00,VWS V14.01,2013-08-06 23:32:00,
2013-08-06 18:37:00,96.5,61.8,29.73,SSE,163,4.0,7.0,32,0.00,,SKC,0.00,VWS V14.01,2013-08-06 23:37:00,
2013-08-06 18:42:00,96.5,61.8,29.73,South,184,6.0,9.0,32,0.00,,SKC,0.00,VWS V14.01,2013-08-06 23:42:00,
2013-08-06 18:47:00,96.5,62.7,29.73,South,171,5.0,7.0,33,0.00,,SKC,0.00,VWS V14.01,2013-08-06 23:47:00,
2013-08-06 18:52:00,96.4,62.6,29.73,South,169,5.0,9.0,33,0.00,,SKC,0.00,VWS V14.01,2013-08-06 23:52:00,
2013-08-06 18:57:00,96.0,62.3,29.73,South,185,10.0,11.0,33,0.00,,SKC,0.00,VWS V14.01,2013-08-06 23:57:00,
2013-08-06 19:02:00,95.9,61.3,29.73,SSW,200,10.0,14.0,32,0.00,,SKC,0.00,VWS V14.01,2013-08-07 00:02:00,
2013-08-06 19:07:00,95.8,62.1,29.73,SSE,168,5.0,12.0,33,0.00,,SKC,0.00,VWS V14.01,2013-08-07 00:07:00,
2013-08-06 19:12:00,95.8,62.1,29.73,SSE,160,9.0,15.0,33,0.00,,SKC,0.00,VWS V14.01,2013-08-07 00:12:00,
2013-08-06 19:17:00,95.5,61.8,29.73,SSW,200,11.0,13.0,33,0.00,,SKC,0.00,VWS V14.01,2013-08-07 00:17:00,
2013-08-06 19:22:00,95.3,62.5,29.73,South,177,5.0,11.0,34,0.00,,SKC,0.00,VWS V14.01,2013-08-07 00:22:00,
2013-08-06 19:27:00,95.1,62.3,29.73,SSE,159,7.0,11.0,34,0.00,,SKC,0.00,VWS V14.01,2013-08-07 00:27:00,
2013-08-06 19:32:00,95.0,62.3,29.73,South,175,10.0,15.0,34,0.00,,SKC,0.00,VWS V14.01,2013-08-07 00:32:00,
2013-08-06 19:37:00,94.6,62.7,29.73,South,190,12.0,15.0,35,0.00,,SKC,0.00,VWS V14.01,2013-08-07 00:37:00,
2013-08-06 19:42:00,94.4,62.5,29.73,SE,140,3.0,10.0,35,0.00,,SKC,0.00,VWS V14.01,2013-08-07 00:42:00,
2013-08-06 19:47:00,94.2,62.4,29.73,South,188,7.0,10.0,35,0.00,,SKC,0.00,VWS V14.01,2013-08-07 00:47:00,
2013-08-06 19:52:00,93.9,62.1,29.73,SSE,159,7.0,7.0,35,0.00,,SKC,0.00,VWS V14.01,2013-08-07 00:52:00,
2013-08-06 19:57:00,93.5,62.6,29.73,SSW,198,13.0,14.0,36,0.00,,SKC,0.00,VWS V14.01,2013-08-07 00:57:00,
2013-08-06 20:02:00,93.3,62.4,29.73,South,178,7.0,11.0,36,0.00,,SKC,0.00,VWS V14.01,2013-08-07 01:02:00,
2013-08-06 20:07:00,93.0,62.1,29.73,South,184,6.0,11.0,36,0.00,,SKC,0.00,VWS V14.01,2013-08-07 01:07:00,
2013-08-06 20:12:00,92.7,61.9,29.73,South,178,6.0,10.0,36,0.00,,SKC,0.00,VWS V14.01,2013-08-07 01:12:00,
2013-08-06 20:17:00,92.6,61.8,29.73,SSE,157,5.0,12.0,36,0.00,,SKC,0.00,VWS V14.01,2013-08-07 01:17:00,
2013-08-06 20:22:00,92.3,61.5,29.73,SSE,162,5.0,10.0,36,0.00,,SKC,0.00,VWS V14.01,2013-08-07 01:22:00,
2013-08-06 20:27:00,92.1,62.1,29.73,SSE,167,7.0,9.0,37,0.00,,SKC,0.00,VWS V14.01,2013-08-07 01:27:00,
2013-08-06 20:32:00,91.8,61.8,29.73,South,170,4.0,5.0,37,0.00,,SKC,0.00,VWS V14.01,2013-08-07 01:32:00,
2013-08-06 20:38:00,91.5,61.6,29.74,South,179,5.0,7.0,37,0.00,,SKC,0.00,VWS V14.01,2013-08-07 01:38:00,
2013-08-06 20:43:00,91.2,62.1,29.74,SSE,161,3.0,9.0,38,0.00,,SKC,0.00,VWS V14.01,2013-08-07 01:43:00,
2013-08-06 20:48:00,90.9,61.8,29.74,SSE,163,3.0,5.0,38,0.00,,SKC,0.00,VWS V14.01,2013-08-07 01:48:00,
2013-08-06 20:53:00,90.6,61.5,29.74,SE,140,1.0,4.0,38,0.00,,SKC,0.00,VWS V14.01,2013-08-07 01:53:00,
2013-08-06 20:58:00,90.3,61.3,29.74,SSE,165,2.0,6.0,38,0.00,,SKC,0.00,VWS V14.01,2013-08-07 01:58:00,
2013-08-06 21:03:00,90.0,61.7,29.74,SSE,154,2.0,3.0,39,0.00,,SKC,0.00,VWS V14.01,2013-08-07 02:03:00,
2013-08-06 21:08:00,89.7,61.5,29.74,SSE,156,2.0,2.0,39,0.00,,SKC,0.00,VWS V14.01,2013-08-07 02:08:00,
2013-08-06 21:13:00,89.4,61.2,29.74,SSE,152,1.0,3.0,39,0.00,,SKC,0.00,VWS V14.01,2013-08-07 02:13:00,
2013-08-06 21:18:00,89.2,61.0,29.74,SSE,152,2.0,5.0,39,0.00,,SKC,0.00,VWS V14.01,2013-08-07 02:18:00,
2013-08-06 21:23:00,89.1,61.7,29.74,SSE,152,1.0,3.0,40,0.00,,SKC,0.00,VWS V14.01,2013-08-07 02:23:00,
2013-08-06 21:28:00,88.9,61.5,29.75,SSE,153,2.0,3.0,40,0.00,,SKC,0.00,VWS V14.01,2013-08-07 02:28:00,
2013-08-06 21:33:00,88.7,61.3,29.75,SSE,153,0.0,1.0,40,0.00,,SKC,0.00,VWS V14.01,2013-08-07 02:33:00,
2013-08-06 21:38:00,88.3,60.9,29.75,SSE,153,0.0,0.0,40,0.00,,SKC,0.00,VWS V14.01,2013-08-07 02:38:00,
2013-08-06 21:43:00,87.9,61.3,29.76,SSE,152,0.0,0.0,41,0.00,,SKC,0.00,VWS V14.01,2013-08-07 02:43:00,
2013-08-06 21:48:00,87.3,60.8,29.76,SSE,153,0.0,0.0,41,0.00,,SKC,0.00,VWS V14.01,2013-08-07 02:48:00,
2013-08-06 21:53:00,86.9,61.1,29.76,SSE,153,0.0,0.0,42,0.00,,SKC,0.00,VWS V14.01,2013-08-07 02:53:00,
2013-08-06 21:58:00,86.8,61.0,29.77,SSE,152,0.0,0.0,42,0.00,,SKC,0.00,VWS V14.01,2013-08-07 02:58:00,
2013-08-06 22:03:00,86.9,61.1,29.77,SSE,152,0.0,1.0,42,0.00,,SKC,0.00,VWS V14.01,2013-08-07 03:03:00,
2013-08-06 22:08:00,86.9,61.1,29.77,SSE,153,0.0,1.0,42,0.00,,SKC,0.00,VWS V14.01,2013-08-07 03:08:00,
2013-08-06 22:13:00,87.0,61.2,29.77,SSE,153,1.0,1.0,42,0.00,,SKC,0.00,VWS V14.01,2013-08-07 03:13:00,
2013-08-06 22:18:00,87.1,61.2,29.78,SSE,152,0.0,0.0,42,0.00,,SKC,0.00,VWS V14.01,2013-08-07 03:18:00,
2013-08-06 22:23:00,86.8,61.0,29.78,SSE,153,0.0,0.0,42,0.00,,SKC,0.00,VWS V14.01,2013-08-07 03:23:00,
2013-08-06 22:28:00,86.5,61.4,29.79,SSE,152,2.0,6.0,43,0.00,,SKC,0.00,VWS V14.01,2013-08-07 03:28:00,
2013-08-06 22:33:00,85.9,61.5,29.79,SSE,152,0.0,1.0,44,0.00,,SKC,0.00,VWS V14.01,2013-08-07 03:33:00,
2013-08-06 22:38:00,85.2,61.5,29.80,SSE,152,0.0,1.0,45,0.00,,SKC,0.00,VWS V14.01,2013-08-07 03:38:00,
2013-08-06 22:43:00,84.8,61.1,29.80,SSE,152,0.0,0.0,45,0.00,,SKC,0.00,VWS V14.01,2013-08-07 03:43:00,
2013-08-06 22:48:00,84.4,61.4,29.80,SSE,152,3.0,3.0,46,0.00,,SKC,0.00,VWS V14.01,2013-08-07 03:48:00,
2013-08-06 22:53:00,84.3,61.9,29.80,SSE,152,2.0,3.0,47,0.00,,SKC,0.00,VWS V14.01,2013-08-07 03:53:00,
2013-08-06 22:58:00,84.4,62.0,29.80,SSE,152,3.0,3.0,47,0.00,,SKC,0.00,VWS V14.01,2013-08-07 03:58:00,
2013-08-06 23:01:00,84.4,62.0,29.81,SSE,152,1.0,3.0,47,0.00,,SKC,0.00,VWS V14.01,2013-08-07 04:01:00,
2013-08-06 23:06:00,84.3,61.9,29.81,SSE,152,0.0,2.0,47,0.00,,SKC,0.00,VWS V14.01,2013-08-07 04:06:00,
2013-08-06 23:11:00,84.1,61.7,29.81,SSE,152,1.0,3.0,47,0.00,,SKC,0.00,VWS V14.01,2013-08-07 04:11:00,
2013-08-06 23:16:00,83.9,62.7,29.81,SSE,152,4.0,6.0,49,0.00,,SKC,0.00,VWS V14.01,2013-08-07 04:16:00,
2013-08-06 23:21:00,83.7,63.1,29.81,SE,145,3.0,4.0,50,0.00,,SKC,0.00,VWS V14.01,2013-08-07 04:21:00,
2013-08-06 23:26:00,83.6,63.6,29.81,SSE,149,4.0,5.0,51,0.00,,SKC,0.00,VWS V14.01,2013-08-07 04:26:00,
2013-08-06 23:31:00,83.6,64.1,29.82,SSE,167,3.0,5.0,52,0.00,,SKC,0.00,VWS V14.01,2013-08-07 04:31:00,
2013-08-06 23:36:00,83.4,64.5,29.82,SSE,159,6.0,6.0,53,0.00,,SKC,0.00,VWS V14.01,2013-08-07 04:36:00,
2013-08-06 23:41:00,83.1,64.8,29.82,SSE,158,2.0,4.0,54,0.00,,SKC,0.00,VWS V14.01,2013-08-07 04:41:00,
2013-08-06 23:46:00,83.2,66.4,29.82,SSE,160,5.0,12.0,57,0.00,,SKC,0.00,VWS V14.01,2013-08-07 04:46:00,
2013-08-06 23:51:00,83.4,67.1,29.82,SSE,161,6.0,10.0,58,0.00,,SKC,0.00,VWS V14.01,2013-08-07 04:51:00,
2013-08-06 23:56:00,83.2,67.4,29.82,South,169,4.0,7.0,59,0.00,,SKC,0.00,VWS V14.01,2013-08-07 04:56:00,